sensor_id;sensor_type;location;lat;lon;timestamp;temperature;humidity
69436;SHT31;56625;54.322;18.582;2023-11-21T00:01:17;0.50;78.09
69436;SHT31;56625;54.322;18.582;2023-11-21T00:03:45;0.49;77.89
69436;SHT31;56625;54.322;18.582;2023-11-21T00:06:13;0.47;77.70
69436;SHT31;56625;54.322;18.582;2023-11-21T00:08:42;0.45;77.67
69436;SHT31;56625;54.322;18.582;2023-11-21T00:11:10;0.44;77.80
69436;SHT31;56625;54.322;18.582;2023-11-21T00:13:38;0.42;77.74
69436;SHT31;56625;54.322;18.582;2023-11-21T00:16:07;0.41;77.40
69436;SHT31;56625;54.322;18.582;2023-11-21T00:18:35;0.40;77.51
69436;SHT31;56625;54.322;18.582;2023-11-21T00:21:03;0.39;77.40
69436;SHT31;56625;54.322;18.582;2023-11-21T00:23:31;0.37;77.30
69436;SHT31;56625;54.322;18.582;2023-11-21T00:25:59;0.36;77.14
69436;SHT31;56625;54.322;18.582;2023-11-21T00:28:27;0.35;76.95
69436;SHT31;56625;54.322;18.582;2023-11-21T00:30:55;0.33;76.61
69436;SHT31;56625;54.322;18.582;2023-11-21T00:33:23;0.31;76.55
69436;SHT31;56625;54.322;18.582;2023-11-21T00:35:53;0.30;76.34
69436;SHT31;56625;54.322;18.582;2023-11-21T00:38:21;0.29;75.87
69436;SHT31;56625;54.322;18.582;2023-11-21T00:40:49;0.29;75.48
69436;SHT31;56625;54.322;18.582;2023-11-21T00:43:17;0.29;75.39
69436;SHT31;56625;54.322;18.582;2023-11-21T00:45:45;0.28;75.12
69436;SHT31;56625;54.322;18.582;2023-11-21T00:48:13;0.30;75.10
69436;SHT31;56625;54.322;18.582;2023-11-21T00:50:42;0.30;75.12
69436;SHT31;56625;54.322;18.582;2023-11-21T00:53:10;0.30;74.79
69436;SHT31;56625;54.322;18.582;2023-11-21T00:55:41;0.31;74.52
69436;SHT31;56625;54.322;18.582;2023-11-21T00:58:09;0.32;74.78
69436;SHT31;56625;54.322;18.582;2023-11-21T01:00:38;0.32;74.51
69436;SHT31;56625;54.322;18.582;2023-11-21T01:03:07;0.33;74.16
69436;SHT31;56625;54.322;18.582;2023-11-21T01:05:35;0.33;74.25
69436;SHT31;56625;54.322;18.582;2023-11-21T01:08:03;0.33;74.09
69436;SHT31;56625;54.322;18.582;2023-11-21T01:10:51;0.33;74.44
69436;SHT31;56625;54.322;18.582;2023-11-21T01:13:19;0.35;74.76
69436;SHT31;56625;54.322;18.582;2023-11-21T01:15:47;0.36;74.76
69436;SHT31;56625;54.322;18.582;2023-11-21T01:18:15;0.36;74.42
69436;SHT31;56625;54.322;18.582;2023-11-21T01:20:43;0.39;74.97
69436;SHT31;56625;54.322;18.582;2023-11-21T01:23:11;0.41;75.05
69436;SHT31;56625;54.322;18.582;2023-11-21T01:25:42;0.44;74.82
69436;SHT31;56625;54.322;18.582;2023-11-21T01:28:10;0.46;74.76
69436;SHT31;56625;54.322;18.582;2023-11-21T01:30:38;0.47;74.76
69436;SHT31;56625;54.322;18.582;2023-11-21T01:33:06;0.50;74.66
69436;SHT31;56625;54.322;18.582;2023-11-21T01:35:35;0.53;73.32
69436;SHT31;56625;54.322;18.582;2023-11-21T01:38:03;0.54;73.62
69436;SHT31;56625;54.322;18.582;2023-11-21T01:40:31;0.56;73.80
69436;SHT31;56625;54.322;18.582;2023-11-21T01:42:59;0.58;73.90
69436;SHT31;56625;54.322;18.582;2023-11-21T01:45:27;0.60;73.82
69436;SHT31;56625;54.322;18.582;2023-11-21T01:47:57;0.61;73.64
69436;SHT31;56625;54.322;18.582;2023-11-21T01:50:28;0.63;73.21
69436;SHT31;56625;54.322;18.582;2023-11-21T01:52:57;0.66;72.97
69436;SHT31;56625;54.322;18.582;2023-11-21T01:55:25;0.67;72.01
69436;SHT31;56625;54.322;18.582;2023-11-21T01:57:56;0.69;71.93
69436;SHT31;56625;54.322;18.582;2023-11-21T02:00:25;0.71;72.36
69436;SHT31;56625;54.322;18.582;2023-11-21T02:02:57;0.73;72.38
69436;SHT31;56625;54.322;18.582;2023-11-21T02:05:28;0.75;72.38
69436;SHT31;56625;54.322;18.582;2023-11-21T02:07:57;0.76;71.45
69436;SHT31;56625;54.322;18.582;2023-11-21T02:10:25;0.77;70.76
69436;SHT31;56625;54.322;18.582;2023-11-21T02:12:54;0.78;71.22
69436;SHT31;56625;54.322;18.582;2023-11-21T02:15:23;0.78;71.37
69436;SHT31;56625;54.322;18.582;2023-11-21T02:17:56;0.79;71.14
69436;SHT31;56625;54.322;18.582;2023-11-21T02:20:26;0.80;70.79
69436;SHT31;56625;54.322;18.582;2023-11-21T02:22:57;0.79;70.12
69436;SHT31;56625;54.322;18.582;2023-11-21T02:25:30;0.78;70.45
69436;SHT31;56625;54.322;18.582;2023-11-21T02:28:02;0.77;70.80
69436;SHT31;56625;54.322;18.582;2023-11-21T02:30:31;0.78;70.88
69436;SHT31;56625;54.322;18.582;2023-11-21T02:33:00;0.78;70.87
69436;SHT31;56625;54.322;18.582;2023-11-21T02:35:30;0.78;70.54
69436;SHT31;56625;54.322;18.582;2023-11-21T02:37:59;0.78;70.71
69436;SHT31;56625;54.322;18.582;2023-11-21T02:40:28;0.78;70.89
69436;SHT31;56625;54.322;18.582;2023-11-21T02:42:57;0.79;71.06
69436;SHT31;56625;54.322;18.582;2023-11-21T02:45:27;0.79;70.33
69436;SHT31;56625;54.322;18.582;2023-11-21T02:47:55;0.78;70.59
69436;SHT31;56625;54.322;18.582;2023-11-21T02:50:26;0.77;70.14
69436;SHT31;56625;54.322;18.582;2023-11-21T02:52:55;0.77;70.20
69436;SHT31;56625;54.322;18.582;2023-11-21T02:55:26;0.75;70.26
69436;SHT31;56625;54.322;18.582;2023-11-21T02:57:55;0.74;70.47
69436;SHT31;56625;54.322;18.582;2023-11-21T03:00:26;0.73;70.55
69436;SHT31;56625;54.322;18.582;2023-11-21T03:02:55;0.74;70.79
69436;SHT31;56625;54.322;18.582;2023-11-21T03:05:24;0.75;70.87
69436;SHT31;56625;54.322;18.582;2023-11-21T03:07:53;0.75;71.02
69436;SHT31;56625;54.322;18.582;2023-11-21T03:10:20;0.77;71.22
69436;SHT31;56625;54.322;18.582;2023-11-21T03:12:49;0.80;71.43
69436;SHT31;56625;54.322;18.582;2023-11-21T03:15:17;0.81;71.47
69436;SHT31;56625;54.322;18.582;2023-11-21T03:17:45;0.83;71.19
69436;SHT31;56625;54.322;18.582;2023-11-21T03:20:13;0.84;71.22
69436;SHT31;56625;54.322;18.582;2023-11-21T03:22:41;0.86;71.26
69436;SHT31;56625;54.322;18.582;2023-11-21T03:25:09;0.88;71.15
69436;SHT31;56625;54.322;18.582;2023-11-21T03:27:39;0.90;71.14
69436;SHT31;56625;54.322;18.582;2023-11-21T03:30:07;0.91;71.24
69436;SHT31;56625;54.322;18.582;2023-11-21T03:32:37;0.95;71.09
69436;SHT31;56625;54.322;18.582;2023-11-21T03:35:05;0.97;70.96
69436;SHT31;56625;54.322;18.582;2023-11-21T03:37:34;0.97;70.77
69436;SHT31;56625;54.322;18.582;2023-11-21T03:40:03;0.98;70.96
69436;SHT31;56625;54.322;18.582;2023-11-21T03:42:32;0.99;71.19
69436;SHT31;56625;54.322;18.582;2023-11-21T03:45:00;1.00;71.28
69436;SHT31;56625;54.322;18.582;2023-11-21T03:47:28;1.01;70.89
69436;SHT31;56625;54.322;18.582;2023-11-21T03:49:56;1.02;70.89
69436;SHT31;56625;54.322;18.582;2023-11-21T03:52:24;1.02;70.76
69436;SHT31;56625;54.322;18.582;2023-11-21T03:54:53;1.03;71.04
69436;SHT31;56625;54.322;18.582;2023-11-21T03:57:21;1.04;71.47
69436;SHT31;56625;54.322;18.582;2023-11-21T03:59:49;1.06;71.40
69436;SHT31;56625;54.322;18.582;2023-11-21T04:02:17;1.06;71.24
69436;SHT31;56625;54.322;18.582;2023-11-21T04:04:45;1.03;71.08
69436;SHT31;56625;54.322;18.582;2023-11-21T04:07:13;1.02;71.04
69436;SHT31;56625;54.322;18.582;2023-11-21T04:09:41;1.00;70.63
69436;SHT31;56625;54.322;18.582;2023-11-21T04:12:09;0.95;70.38
69436;SHT31;56625;54.322;18.582;2023-11-21T04:14:37;0.90;70.29
69436;SHT31;56625;54.322;18.582;2023-11-21T04:17:06;0.87;70.52
69436;SHT31;56625;54.322;18.582;2023-11-21T04:19:34;0.84;70.40
69436;SHT31;56625;54.322;18.582;2023-11-21T04:22:02;0.80;70.30
69436;SHT31;56625;54.322;18.582;2023-11-21T04:24:31;0.76;70.41
69436;SHT31;56625;54.322;18.582;2023-11-21T04:26:59;0.75;70.72
69436;SHT31;56625;54.322;18.582;2023-11-21T04:29:27;0.73;70.67
69436;SHT31;56625;54.322;18.582;2023-11-21T04:31:55;0.69;70.71
69436;SHT31;56625;54.322;18.582;2023-11-21T04:34:23;0.68;70.85
69436;SHT31;56625;54.322;18.582;2023-11-21T04:36:51;0.65;70.97
69436;SHT31;56625;54.322;18.582;2023-11-21T04:39:19;0.64;71.07
69436;SHT31;56625;54.322;18.582;2023-11-21T04:41:47;0.62;71.07
69436;SHT31;56625;54.322;18.582;2023-11-21T04:44:16;0.61;70.89
69436;SHT31;56625;54.322;18.582;2023-11-21T04:46:44;0.59;70.79
69436;SHT31;56625;54.322;18.582;2023-11-21T04:49:12;0.57;70.98
69436;SHT31;56625;54.322;18.582;2023-11-21T04:51:42;0.56;71.20
69436;SHT31;56625;54.322;18.582;2023-11-21T04:54:10;0.55;71.22
69436;SHT31;56625;54.322;18.582;2023-11-21T04:56:38;0.54;71.38
69436;SHT31;56625;54.322;18.582;2023-11-21T04:59:06;0.54;71.31
69436;SHT31;56625;54.322;18.582;2023-11-21T05:01:34;0.54;71.23
69436;SHT31;56625;54.322;18.582;2023-11-21T05:04:02;0.53;71.23
69436;SHT31;56625;54.322;18.582;2023-11-21T05:06:30;0.51;71.14
69436;SHT31;56625;54.322;18.582;2023-11-21T05:08:58;0.48;71.02
69436;SHT31;56625;54.322;18.582;2023-11-21T05:11:27;0.47;70.88
69436;SHT31;56625;54.322;18.582;2023-11-21T05:13:56;0.45;71.02
69436;SHT31;56625;54.322;18.582;2023-11-21T05:16:26;0.43;71.09
69436;SHT31;56625;54.322;18.582;2023-11-21T05:18:55;0.43;71.20
69436;SHT31;56625;54.322;18.582;2023-11-21T05:21:28;0.42;71.16
69436;SHT31;56625;54.322;18.582;2023-11-21T05:23:58;0.41;70.86
69436;SHT31;56625;54.322;18.582;2023-11-21T05:26:26;0.40;71.08
69436;SHT31;56625;54.322;18.582;2023-11-21T05:28:55;0.39;71.24
69436;SHT31;56625;54.322;18.582;2023-11-21T05:31:23;0.38;71.43
69436;SHT31;56625;54.322;18.582;2023-11-21T05:33:51;0.38;71.70
69436;SHT31;56625;54.322;18.582;2023-11-21T05:36:20;0.39;71.65
69436;SHT31;56625;54.322;18.582;2023-11-21T05:38:48;0.38;71.72
69436;SHT31;56625;54.322;18.582;2023-11-21T05:41:16;0.38;71.88
69436;SHT31;56625;54.322;18.582;2023-11-21T05:43:44;0.38;72.16
69436;SHT31;56625;54.322;18.582;2023-11-21T05:46:12;0.37;72.24
69436;SHT31;56625;54.322;18.582;2023-11-21T05:48:41;0.35;72.38
69436;SHT31;56625;54.322;18.582;2023-11-21T05:51:09;0.35;72.57
69436;SHT31;56625;54.322;18.582;2023-11-21T05:53:40;0.35;72.52
69436;SHT31;56625;54.322;18.582;2023-11-21T05:56:08;0.34;72.62
69436;SHT31;56625;54.322;18.582;2023-11-21T05:58:36;0.34;72.60
69436;SHT31;56625;54.322;18.582;2023-11-21T06:01:05;0.33;72.67
69436;SHT31;56625;54.322;18.582;2023-11-21T06:03:37;0.34;72.84
69436;SHT31;56625;54.322;18.582;2023-11-21T06:06:05;0.34;72.84
69436;SHT31;56625;54.322;18.582;2023-11-21T06:08:34;0.34;72.80
69436;SHT31;56625;54.322;18.582;2023-11-21T06:11:02;0.34;72.87
69436;SHT31;56625;54.322;18.582;2023-11-21T06:13:33;0.33;72.70
69436;SHT31;56625;54.322;18.582;2023-11-21T06:16:02;0.32;72.75
69436;SHT31;56625;54.322;18.582;2023-11-21T06:18:38;0.32;72.88
69436;SHT31;56625;54.322;18.582;2023-11-21T06:21:09;0.31;72.89
69436;SHT31;56625;54.322;18.582;2023-11-21T06:23:37;0.32;72.90
69436;SHT31;56625;54.322;18.582;2023-11-21T06:26:05;0.31;72.88
69436;SHT31;56625;54.322;18.582;2023-11-21T06:28:34;0.32;73.03
69436;SHT31;56625;54.322;18.582;2023-11-21T06:31:03;0.32;73.25
69436;SHT31;56625;54.322;18.582;2023-11-21T06:33:33;0.33;73.31
69436;SHT31;56625;54.322;18.582;2023-11-21T06:36:01;0.34;73.10
69436;SHT31;56625;54.322;18.582;2023-11-21T06:38:33;0.34;73.15
69436;SHT31;56625;54.322;18.582;2023-11-21T06:41:02;0.33;73.11
69436;SHT31;56625;54.322;18.582;2023-11-21T06:43:32;0.33;73.27
69436;SHT31;56625;54.322;18.582;2023-11-21T06:46:00;0.32;73.36
69436;SHT31;56625;54.322;18.582;2023-11-21T06:48:28;0.31;73.37
69436;SHT31;56625;54.322;18.582;2023-11-21T06:50:57;0.32;73.42
69436;SHT31;56625;54.322;18.582;2023-11-21T06:53:26;0.32;73.23
69436;SHT31;56625;54.322;18.582;2023-11-21T06:55:54;0.31;73.19
69436;SHT31;56625;54.322;18.582;2023-11-21T06:58:22;0.29;73.05
69436;SHT31;56625;54.322;18.582;2023-11-21T07:00:52;0.27;72.98
69436;SHT31;56625;54.322;18.582;2023-11-21T07:03:23;0.23;72.95
69436;SHT31;56625;54.322;18.582;2023-11-21T07:05:52;0.23;73.06
69436;SHT31;56625;54.322;18.582;2023-11-21T07:08:20;0.22;73.15
69436;SHT31;56625;54.322;18.582;2023-11-21T07:10:48;0.23;73.03
69436;SHT31;56625;54.322;18.582;2023-11-21T07:13:16;0.26;72.98
69436;SHT31;56625;54.322;18.582;2023-11-21T07:15:44;0.29;73.03
69436;SHT31;56625;54.322;18.582;2023-11-21T07:18:13;0.36;72.92
69436;SHT31;56625;54.322;18.582;2023-11-21T07:20:41;0.40;72.81
69436;SHT31;56625;54.322;18.582;2023-11-21T07:23:09;0.46;72.88
69436;SHT31;56625;54.322;18.582;2023-11-21T07:25:38;0.52;72.27
69436;SHT31;56625;54.322;18.582;2023-11-21T07:28:06;0.58;72.48
69436;SHT31;56625;54.322;18.582;2023-11-21T07:30:34;0.66;72.33
69436;SHT31;56625;54.322;18.582;2023-11-21T07:33:02;0.74;72.07
69436;SHT31;56625;54.322;18.582;2023-11-21T07:35:30;0.84;72.11
69436;SHT31;56625;54.322;18.582;2023-11-21T07:37:58;0.97;71.85
69436;SHT31;56625;54.322;18.582;2023-11-21T07:40:26;1.12;71.51
69436;SHT31;56625;54.322;18.582;2023-11-21T07:42:58;1.24;71.17
69436;SHT31;56625;54.322;18.582;2023-11-21T07:45:27;1.33;71.05
69436;SHT31;56625;54.322;18.582;2023-11-21T07:47:55;1.43;70.79
69436;SHT31;56625;54.322;18.582;2023-11-21T07:50:23;1.52;70.09
69436;SHT31;56625;54.322;18.582;2023-11-21T07:52:51;1.53;69.10
69436;SHT31;56625;54.322;18.582;2023-11-21T07:55:22;1.52;69.18
69436;SHT31;56625;54.322;18.582;2023-11-21T07:57:50;1.52;69.23
69436;SHT31;56625;54.322;18.582;2023-11-21T08:00:18;1.58;69.19
69436;SHT31;56625;54.322;18.582;2023-11-21T08:02:48;1.61;69.02
69436;SHT31;56625;54.322;18.582;2023-11-21T08:05:16;1.68;69.64
69436;SHT31;56625;54.322;18.582;2023-11-21T08:07:58;1.75;69.28
69436;SHT31;56625;54.322;18.582;2023-11-21T08:10:26;1.83;69.08
69436;SHT31;56625;54.322;18.582;2023-11-21T08:12:54;1.87;68.51
69436;SHT31;56625;54.322;18.582;2023-11-21T08:15:22;1.91;68.78
69436;SHT31;56625;54.322;18.582;2023-11-21T08:17:50;2.01;68.87
69436;SHT31;56625;54.322;18.582;2023-11-21T08:20:19;2.13;68.58
69436;SHT31;56625;54.322;18.582;2023-11-21T08:22:47;2.23;68.42
69436;SHT31;56625;54.322;18.582;2023-11-21T08:25:16;2.28;67.54
69436;SHT31;56625;54.322;18.582;2023-11-21T08:27:48;2.32;67.27
69436;SHT31;56625;54.322;18.582;2023-11-21T08:30:16;2.36;66.98
69436;SHT31;56625;54.322;18.582;2023-11-21T08:32:47;2.39;66.85
69436;SHT31;56625;54.322;18.582;2023-11-21T08:35:15;2.44;67.07
69436;SHT31;56625;54.322;18.582;2023-11-21T08:37:43;2.52;67.23
69436;SHT31;56625;54.322;18.582;2023-11-21T08:40:11;2.63;66.92
69436;SHT31;56625;54.322;18.582;2023-11-21T08:42:45;2.72;66.90
69436;SHT31;56625;54.322;18.582;2023-11-21T08:45:14;2.78;66.01
69436;SHT31;56625;54.322;18.582;2023-11-21T08:47:43;2.78;65.51
69436;SHT31;56625;54.322;18.582;2023-11-21T08:50:14;2.78;65.50
69436;SHT31;56625;54.322;18.582;2023-11-21T08:52:43;2.81;65.50
69436;SHT31;56625;54.322;18.582;2023-11-21T08:55:13;2.79;65.10
69436;SHT31;56625;54.322;18.582;2023-11-21T08:57:43;2.82;65.56
69436;SHT31;56625;54.322;18.582;2023-11-21T09:00:14;2.88;65.39
69436;SHT31;56625;54.322;18.582;2023-11-21T09:02:45;2.97;65.78
69436;SHT31;56625;54.322;18.582;2023-11-21T09:05:13;3.08;64.91
69436;SHT31;56625;54.322;18.582;2023-11-21T09:07:43;3.12;64.12
69436;SHT31;56625;54.322;18.582;2023-11-21T09:10:14;3.13;63.46
69436;SHT31;56625;54.322;18.582;2023-11-21T09:12:42;3.18;63.59
69436;SHT31;56625;54.322;18.582;2023-11-21T09:15:10;3.25;63.45
69436;SHT31;56625;54.322;18.582;2023-11-21T09:17:39;3.32;62.73
69436;SHT31;56625;54.322;18.582;2023-11-21T09:20:08;3.33;61.49
69436;SHT31;56625;54.322;18.582;2023-11-21T09:22:38;3.37;61.21
69436;SHT31;56625;54.322;18.582;2023-11-21T09:25:07;3.35;59.16
69436;SHT31;56625;54.322;18.582;2023-11-21T09:27:36;3.33;58.69
69436;SHT31;56625;54.322;18.582;2023-11-21T09:30:04;3.46;57.64
69436;SHT31;56625;54.322;18.582;2023-11-21T09:32:37;3.81;54.59
69436;SHT31;56625;54.322;18.582;2023-11-21T09:35:06;4.05;52.87
69436;SHT31;56625;54.322;18.582;2023-11-21T09:37:44;4.09;53.26
69436;SHT31;56625;54.322;18.582;2023-11-21T09:40:16;3.89;54.43
69436;SHT31;56625;54.322;18.582;2023-11-21T09:42:54;4.04;53.38
69436;SHT31;56625;54.322;18.582;2023-11-21T09:45:25;4.37;52.81
69436;SHT31;56625;54.322;18.582;2023-11-21T09:47:56;4.54;50.48
69436;SHT31;56625;54.322;18.582;2023-11-21T09:50:26;4.64;50.85
69436;SHT31;56625;54.322;18.582;2023-11-21T09:52:59;4.49;51.60
69436;SHT31;56625;54.322;18.582;2023-11-21T09:55:38;4.26;53.97
69436;SHT31;56625;54.322;18.582;2023-11-21T09:58:11;4.19;54.11
69436;SHT31;56625;54.322;18.582;2023-11-21T10:00:51;4.14;54.55
69436;SHT31;56625;54.322;18.582;2023-11-21T10:03:21;4.12;54.68
69436;SHT31;56625;54.322;18.582;2023-11-21T10:05:50;4.08;54.15
69436;SHT31;56625;54.322;18.582;2023-11-21T10:08:22;3.99;53.76
69436;SHT31;56625;54.322;18.582;2023-11-21T10:10:56;3.85;54.27
69436;SHT31;56625;54.322;18.582;2023-11-21T10:13:25;3.82;54.68
69436;SHT31;56625;54.322;18.582;2023-11-21T10:15:58;3.62;54.26
69436;SHT31;56625;54.322;18.582;2023-11-21T10:18:27;3.62;54.70
69436;SHT31;56625;54.322;18.582;2023-11-21T10:20:56;3.54;54.77
69436;SHT31;56625;54.322;18.582;2023-11-21T10:23:25;3.37;55.75
69436;SHT31;56625;54.322;18.582;2023-11-21T10:25:53;3.25;56.22
69436;SHT31;56625;54.322;18.582;2023-11-21T10:28:26;3.16;56.52
69436;SHT31;56625;54.322;18.582;2023-11-21T10:30:55;3.13;56.41
69436;SHT31;56625;54.322;18.582;2023-11-21T10:33:26;3.14;55.99
69436;SHT31;56625;54.322;18.582;2023-11-21T10:35:58;3.18;56.73
69436;SHT31;56625;54.322;18.582;2023-11-21T10:38:32;3.16;56.23
69436;SHT31;56625;54.322;18.582;2023-11-21T10:41:11;2.99;54.44
69436;SHT31;56625;54.322;18.582;2023-11-21T10:43:43;2.85;55.66
69436;SHT31;56625;54.322;18.582;2023-11-21T10:46:13;2.76;55.85
69436;SHT31;56625;54.322;18.582;2023-11-21T10:48:42;2.66;56.25
69436;SHT31;56625;54.322;18.582;2023-11-21T10:51:10;2.66;57.01
69436;SHT31;56625;54.322;18.582;2023-11-21T10:53:41;2.66;57.00
69436;SHT31;56625;54.322;18.582;2023-11-21T10:56:14;2.70;57.28
69436;SHT31;56625;54.322;18.582;2023-11-21T10:58:49;2.78;56.80
69436;SHT31;56625;54.322;18.582;2023-11-21T11:01:20;2.83;57.04
69436;SHT31;56625;54.322;18.582;2023-11-21T11:03:53;2.87;57.02
69436;SHT31;56625;54.322;18.582;2023-11-21T11:06:22;2.90;57.31
69436;SHT31;56625;54.322;18.582;2023-11-21T11:08:54;3.01;57.23
69436;SHT31;56625;54.322;18.582;2023-11-21T11:11:24;3.07;56.18
69436;SHT31;56625;54.322;18.582;2023-11-21T11:13:53;3.18;55.58
69436;SHT31;56625;54.322;18.582;2023-11-21T11:16:23;3.32;55.80
69436;SHT31;56625;54.322;18.582;2023-11-21T11:18:52;3.34;54.96
69436;SHT31;56625;54.322;18.582;2023-11-21T11:21:23;3.29;54.87
69436;SHT31;56625;54.322;18.582;2023-11-21T11:24:40;3.26;54.67
69436;SHT31;56625;54.322;18.582;2023-11-21T11:31:00;2.88;55.80
69436;SHT31;56625;54.322;18.582;2023-11-21T11:33:53;2.81;56.55
69436;SHT31;56625;54.322;18.582;2023-11-21T11:36:34;2.77;56.52
69436;SHT31;56625;54.322;18.582;2023-11-21T11:42:07;2.71;56.51
69436;SHT31;56625;54.322;18.582;2023-11-21T11:47:15;2.71;56.62
69436;SHT31;56625;54.322;18.582;2023-11-21T11:52:51;2.74;56.40
69436;SHT31;56625;54.322;18.582;2023-11-21T11:55:23;2.73;56.47
69436;SHT31;56625;54.322;18.582;2023-11-21T11:57:53;2.70;56.51
69436;SHT31;56625;54.322;18.582;2023-11-21T12:03:00;2.65;57.25
69436;SHT31;56625;54.322;18.582;2023-11-21T12:05:32;2.65;57.84
69436;SHT31;56625;54.322;18.582;2023-11-21T12:08:04;2.62;57.11
69436;SHT31;56625;54.322;18.582;2023-11-21T12:10:52;2.59;57.33
69436;SHT31;56625;54.322;18.582;2023-11-21T12:13:22;2.56;57.13
69436;SHT31;56625;54.322;18.582;2023-11-21T12:15:51;2.54;57.49
69436;SHT31;56625;54.322;18.582;2023-11-21T12:18:19;2.50;56.93
69436;SHT31;56625;54.322;18.582;2023-11-21T12:20:48;2.48;57.02
69436;SHT31;56625;54.322;18.582;2023-11-21T12:23:18;2.45;57.19
69436;SHT31;56625;54.322;18.582;2023-11-21T12:25:46;2.45;57.70
69436;SHT31;56625;54.322;18.582;2023-11-21T12:28:14;2.46;57.92
69436;SHT31;56625;54.322;18.582;2023-11-21T12:30:42;2.44;57.54
69436;SHT31;56625;54.322;18.582;2023-11-21T12:33:11;2.42;57.71
69436;SHT31;56625;54.322;18.582;2023-11-21T12:35:45;2.40;57.90
69436;SHT31;56625;54.322;18.582;2023-11-21T12:38:13;2.44;58.34
69436;SHT31;56625;54.322;18.582;2023-11-21T12:40:41;2.54;57.43
69436;SHT31;56625;54.322;18.582;2023-11-21T12:43:09;2.68;57.23
69436;SHT31;56625;54.322;18.582;2023-11-21T12:45:38;2.83;57.10
69436;SHT31;56625;54.322;18.582;2023-11-21T12:48:07;2.80;56.74
69436;SHT31;56625;54.322;18.582;2023-11-21T12:50:37;2.70;57.52
69436;SHT31;56625;54.322;18.582;2023-11-21T12:53:08;2.64;58.06
69436;SHT31;56625;54.322;18.582;2023-11-21T12:55:44;2.55;57.75
69436;SHT31;56625;54.322;18.582;2023-11-21T12:58:19;2.45;57.69
69436;SHT31;56625;54.322;18.582;2023-11-21T13:00:48;2.40;57.72
69436;SHT31;56625;54.322;18.582;2023-11-21T13:03:32;2.38;58.32
69436;SHT31;56625;54.322;18.582;2023-11-21T13:06:00;2.37;58.86
69436;SHT31;56625;54.322;18.582;2023-11-21T13:08:30;2.38;58.82
69436;SHT31;56625;54.322;18.582;2023-11-21T13:11:00;2.37;58.72
69436;SHT31;56625;54.322;18.582;2023-11-21T13:13:29;2.38;58.63
69436;SHT31;56625;54.322;18.582;2023-11-21T13:15:58;2.38;59.42
69436;SHT31;56625;54.322;18.582;2023-11-21T13:18:30;2.37;59.13
69436;SHT31;56625;54.322;18.582;2023-11-21T13:21:02;2.37;58.93
69436;SHT31;56625;54.322;18.582;2023-11-21T13:23:43;2.37;58.16
69436;SHT31;56625;54.322;18.582;2023-11-21T13:26:14;2.33;58.69
69436;SHT31;56625;54.322;18.582;2023-11-21T13:28:43;2.32;59.27
69436;SHT31;56625;54.322;18.582;2023-11-21T13:31:15;2.31;59.49
69436;SHT31;56625;54.322;18.582;2023-11-21T13:33:54;2.32;59.68
69436;SHT31;56625;54.322;18.582;2023-11-21T13:36:32;2.33;60.04
69436;SHT31;56625;54.322;18.582;2023-11-21T13:39:03;2.45;60.22
69436;SHT31;56625;54.322;18.582;2023-11-21T13:41:43;2.67;60.34
69436;SHT31;56625;54.322;18.582;2023-11-21T13:44:15;2.78;60.08
69436;SHT31;56625;54.322;18.582;2023-11-21T13:46:54;2.82;60.33
69436;SHT31;56625;54.322;18.582;2023-11-21T13:49:25;2.87;59.81
69436;SHT31;56625;54.322;18.582;2023-11-21T13:51:54;2.94;59.79
69436;SHT31;56625;54.322;18.582;2023-11-21T13:54:23;2.94;59.27
69436;SHT31;56625;54.322;18.582;2023-11-21T13:56:53;2.88;59.46
69436;SHT31;56625;54.322;18.582;2023-11-21T13:59:22;2.86;59.95
69436;SHT31;56625;54.322;18.582;2023-11-21T14:01:53;2.88;60.73
69436;SHT31;56625;54.322;18.582;2023-11-21T14:04:25;3.02;61.05
69436;SHT31;56625;54.322;18.582;2023-11-21T14:07:00;3.06;61.07
69436;SHT31;56625;54.322;18.582;2023-11-21T14:09:42;3.00;61.10
69436;SHT31;56625;54.322;18.582;2023-11-21T14:12:13;2.91;61.48
69436;SHT31;56625;54.322;18.582;2023-11-21T14:14:43;2.86;62.14
69436;SHT31;56625;54.322;18.582;2023-11-21T14:17:13;2.82;62.42
69436;SHT31;56625;54.322;18.582;2023-11-21T14:19:46;2.80;62.70
69436;SHT31;56625;54.322;18.582;2023-11-21T14:22:15;2.79;63.00
69436;SHT31;56625;54.322;18.582;2023-11-21T14:24:44;2.78;63.04
69436;SHT31;56625;54.322;18.582;2023-11-21T14:27:15;2.75;63.12
69436;SHT31;56625;54.322;18.582;2023-11-21T14:29:43;2.73;63.37
69436;SHT31;56625;54.322;18.582;2023-11-21T14:32:12;2.71;63.70
69436;SHT31;56625;54.322;18.582;2023-11-21T14:34:42;2.69;63.96
69436;SHT31;56625;54.322;18.582;2023-11-21T14:37:15;2.66;64.25
69436;SHT31;56625;54.322;18.582;2023-11-21T14:39:43;2.62;64.63
69436;SHT31;56625;54.322;18.582;2023-11-21T14:42:17;2.59;64.95
69436;SHT31;56625;54.322;18.582;2023-11-21T14:44:52;2.57;65.18
69436;SHT31;56625;54.322;18.582;2023-11-21T14:47:22;2.56;65.19
69436;SHT31;56625;54.322;18.582;2023-11-21T14:49:55;2.56;64.89
69436;SHT31;56625;54.322;18.582;2023-11-21T14:52:27;2.55;63.42
69436;SHT31;56625;54.322;18.582;2023-11-21T14:55:03;2.54;63.57
69436;SHT31;56625;54.322;18.582;2023-11-21T14:57:51;2.53;63.91
69436;SHT31;56625;54.322;18.582;2023-11-21T15:00:20;2.52;64.08
69436;SHT31;56625;54.322;18.582;2023-11-21T15:03:04;2.53;64.52
69436;SHT31;56625;54.322;18.582;2023-11-21T15:05:35;2.54;64.86
69436;SHT31;56625;54.322;18.582;2023-11-21T15:08:04;2.53;64.86
69436;SHT31;56625;54.322;18.582;2023-11-21T15:10:58;2.53;64.63
69436;SHT31;56625;54.322;18.582;2023-11-21T15:13:26;2.51;64.64
69436;SHT31;56625;54.322;18.582;2023-11-21T15:15:56;2.49;64.71
69436;SHT31;56625;54.322;18.582;2023-11-21T15:18:28;2.46;64.39
69436;SHT31;56625;54.322;18.582;2023-11-21T15:20:57;2.42;64.04
69436;SHT31;56625;54.322;18.582;2023-11-21T15:23:25;2.40;64.41
69436;SHT31;56625;54.322;18.582;2023-11-21T15:25:55;2.39;64.58
69436;SHT31;56625;54.322;18.582;2023-11-21T15:28:24;2.38;64.40
69436;SHT31;56625;54.322;18.582;2023-11-21T15:30:52;2.36;64.51
69436;SHT31;56625;54.322;18.582;2023-11-21T15:33:21;2.28;63.71
69436;SHT31;56625;54.322;18.582;2023-11-21T15:35:49;2.15;63.44
69436;SHT31;56625;54.322;18.582;2023-11-21T15:38:17;2.04;63.59
69436;SHT31;56625;54.322;18.582;2023-11-21T15:40:45;1.92;63.67
69436;SHT31;56625;54.322;18.582;2023-11-21T15:43:13;1.86;63.98
69436;SHT31;56625;54.322;18.582;2023-11-21T15:45:41;1.81;63.80
69436;SHT31;56625;54.322;18.582;2023-11-21T15:48:10;1.76;63.65
69436;SHT31;56625;54.322;18.582;2023-11-21T15:50:38;1.69;63.60
69436;SHT31;56625;54.322;18.582;2023-11-21T15:53:06;1.63;63.73
69436;SHT31;56625;54.322;18.582;2023-11-21T15:55:34;1.59;63.78
69436;SHT31;56625;54.322;18.582;2023-11-21T15:58:09;1.54;63.63
69436;SHT31;56625;54.322;18.582;2023-11-21T16:00:37;1.50;63.74
69436;SHT31;56625;54.322;18.582;2023-11-21T16:03:05;1.45;63.78